Terminal Aerodrome Forecast
Issued by NWS Albany, NY

Home | Current Version | Previous Version | Text Only | Print | Product List | Glossary On
Versions: 1 2 3 4 5 6 7 8 9 10 11 12 13 14 15 16 17 18
000
FTUS41 KALY 211700 RRA
TAFPOU
TAF
KPOU 211747Z 2118/2218 20005KT P6SM VCSH SCT025 BKN250
      TEMPO 2118/2121 BKN025 BKN250
     FM220000 20007KT P6SM BKN040 BKN080
     FM220400 22006KT P6SM SCT025 BKN050
     FM220700 25007KT 4SM BR BKN015 OVC025
     FM221200 27010KT P6SM SCT025 BKN040
     FM221500 30010G18KT P6SM BKN050=

USA.gov is the U.S. government's official web portal to all federal, state and local government web resources and services.